Time;durP1;ratioP1;P1;durP2;ratioP2;P2;SDS_P1;SDS_P2;PMS_P1;PMS_P2;Temp;Humidity;BMP_temperature;BMP_pressure;BME280_temperature;BME280_humidity;BME280_pressure;Samples;Min_cycle;Max_cycle;Signal;HPM_P1;HPM_P2
2021/03/12 00:00:39;;;;;;;31.88;7.60;;;8.90;99.90;;;8.55;74.02;100111.66;4936741;29;20090;-71
2021/03/12 00:03:12;;;;;;;28.88;6.20;;;8.90;99.90;;;9.03;73.63;100198.22;4936759;29;20051;-71
2021/03/12 00:05:42;;;;;;;;;;;8.90;99.90;;;8.79;73.15;100166.78;4920123;29;20062;-71
2021/03/12 00:08:10;;;;;;;27.33;6.68;;;8.80;99.90;;;8.86;73.37;100197.50;4937087;29;19977;-71
2021/03/12 00:10:38;;;;;;;26.85;6.40;;;8.80;99.90;;;8.93;72.96;100193.91;4936745;29;20087;-70
2021/03/12 00:13:06;;;;;;;29.40;7.32;;;8.80;99.90;;;8.89;72.28;100208.00;4936579;29;20047;-70
2021/03/12 00:15:33;;;;;;;25.48;6.40;;;8.70;99.90;;;8.92;72.40;100215.91;4936488;29;20119;-70
2021/03/12 00:18:01;;;;;;;20.90;7.10;;;8.80;99.90;;;8.87;72.26;100221.22;4919398;29;20091;-70
2021/03/12 00:20:33;;;;;;;21.77;6.65;;;8.80;99.90;;;8.87;72.03;100230.88;4919227;29;20052;-70
2021/03/12 00:23:01;;;;;;;28.27;6.93;;;8.70;99.90;;;8.89;71.52;100223.84;4936478;29;20056;-70
2021/03/12 00:25:35;;;;;;;23.30;6.20;;;8.70;99.90;;;8.21;71.83;100130.31;4919264;29;20135;-71
2021/03/12 00:28:04;;;;;;;23.67;6.57;;;8.70;99.90;;;8.81;72.08;100223.91;4936387;29;20502;-70
2021/03/12 00:30:32;;;;;;;27.00;7.10;;;8.70;99.90;;;8.73;72.44;100241.53;4919153;29;20197;-71
2021/03/12 00:32:59;;;;;;;25.88;7.28;;;8.60;99.90;;;8.70;72.50;100244.19;4919019;29;20058;-70
2021/03/12 00:35:27;;;;;;;30.08;7.32;;;8.60;99.90;;;8.60;73.95;100241.63;4936269;29;20048;-71
2021/03/12 00:37:55;;;;;;;24.70;6.40;;;8.50;99.90;;;8.47;74.67;100245.22;4936368;29;20043;-70
2021/03/12 00:40:30;;;;;;;28.05;6.97;;;8.40;99.90;;;7.81;75.37;100126.19;4918932;29;20063;-70
2021/03/12 00:42:58;;;;;;;34.67;6.85;;;8.30;99.90;;;8.63;74.99;100260.06;4936097;29;20047;-71
2021/03/12 00:45:33;;;;;;;32.53;7.95;;;8.50;99.90;;;8.73;75.08;100261.78;4918974;29;20048;-71
2021/03/12 00:48:09;;;;;;;35.78;8.02;;;8.50;99.90;;;8.65;75.31;100260.94;4936198;29;20403;-70
2021/03/12 00:50:39;;;;;;;32.00;7.55;;;8.50;99.90;;;8.70;75.89;100274.94;4936004;29;20039;-71
2021/03/12 00:53:08;;;;;;;;;;;8.50;99.90;;;8.60;75.92;100281.16;4919235;29;20506;-71
2021/03/12 00:55:36;;;;;;;33.00;7.25;;;8.50;99.90;;;8.29;76.10;100233.03;4918779;29;19923;-70
2021/03/12 00:58:05;;;;;;;31.48;7.85;;;8.50;99.90;;;8.58;75.69;100286.44;4918874;29;20382;-71
2021/03/12 01:00:35;;;;;;;25.90;7.63;;;8.40;99.90;;;7.94;75.51;100172.63;4918792;29;20055;-71
2021/03/12 01:03:10;;;;;;;38.08;7.82;;;8.50;99.90;;;8.53;76.22;100311.97;4918786;29;20047;-70
2021/03/12 01:05:38;;;;;;;35.45;7.82;;;8.40;99.90;;;8.55;76.13;100314.59;4935751;29;20102;-71
2021/03/12 01:08:10;;;;;;;34.95;8.50;;;8.40;99.90;;;8.60;76.71;100315.41;4918776;29;20055;-71
2021/03/12 01:10:41;;;;;;;36.00;8.65;;;8.40;99.90;;;8.52;77.01;100306.69;4935466;29;20043;-71
2021/03/12 01:13:09;;;;;;;33.80;7.35;;;8.40;99.90;;;8.49;76.49;100304.97;4918605;29;20075;-71
2021/03/12 01:15:37;;;;;;;28.67;7.43;;;8.40;99.90;;;8.27;77.04;100294.50;4935710;29;20048;-71
2021/03/12 01:18:16;;;;;;;31.98;8.05;;;8.30;99.90;;;8.40;77.58;100312.88;4918463;29;20509;-72
2021/03/12 01:20:43;;;;;;;29.98;7.43;;;8.30;99.90;;;8.38;77.79;100313.78;4918453;29;20051;-70
2021/03/12 01:23:14;;;;;;;30.15;8.40;;;8.30;99.90;;;8.44;77.31;100324.31;4918179;29;20130;-71
2021/03/12 01:25:44;;;;;;;29.38;7.97;;;8.30;99.90;;;8.48;77.13;100331.31;4918386;29;20059;-70
2021/03/12 01:28:16;;;;;;;32.03;7.53;;;8.30;99.90;;;8.50;77.30;100326.88;4918363;29;20055;-71
2021/03/12 01:30:48;;;;;;;24.75;7.78;;;8.30;99.90;;;8.58;77.01;100330.38;4935384;29;20083;-71
2021/03/12 01:33:38;;;;;;;34.33;7.80;;;8.40;99.90;;;8.43;76.98;100325.19;4918421;29;20079;-71
2021/03/12 01:36:07;;;;;;;26.48;8.07;;;8.30;99.90;;;8.56;76.67;100345.31;4918542;29;20059;-71
2021/03/12 01:38:55;;;;;;;24.15;7.20;;;8.40;99.90;;;8.55;76.03;100333.91;4918188;29;20059;-71
2021/03/12 01:41:23;;;;;;;33.00;8.20;;;8.40;99.90;;;8.49;76.28;100338.34;4918268;29;20059;-70
2021/03/12 01:43:52;;;;;;;36.53;7.45;;;8.40;99.90;;;8.41;76.63;100334.84;4918092;29;20500;-71
2021/03/12 01:46:23;;;;;;;27.65;7.70;;;8.30;99.90;;;8.34;76.68;100333.13;4918419;29;20425;-71
2021/03/12 01:48:51;;;;;;;35.80;8.95;;;8.20;99.90;;;8.25;76.34;100334.03;4935529;29;20043;-71
2021/03/12 01:51:18;;;;;;;29.02;7.70;;;8.20;99.90;;;8.17;76.97;100341.03;4918497;29;20417;-71
2021/03/12 01:53:47;;;;;;;28.63;8.02;;;8.10;99.90;;;7.85;76.30;100264.81;4917951;29;20052;-71
2021/03/12 01:56:15;;;;;;;23.13;7.50;;;8.10;99.90;;;8.26;76.20;100321.75;4917976;29;20052;-71
2021/03/12 01:59:03;;;;;;;30.73;8.65;;;8.10;99.90;;;8.28;76.09;100343.69;4924262;29;20502;-71
2021/03/12 02:01:49;;;;;;;30.30;7.88;;;8.10;99.90;;;8.34;75.30;100348.94;4935480;29;20071;-70
2021/03/12 02:04:31;;;;;;;30.35;7.95;;;8.20;99.90;;;8.32;75.43;100348.97;4917914;29;20052;-70
2021/03/12 02:07:10;;;;;;;35.22;6.85;;;8.20;99.90;;;8.30;75.12;100357.75;4918218;29;20138;-71
2021/03/12 02:09:42;;;;;;;32.78;7.97;;;8.20;99.90;;;8.13;75.51;100329.66;4920532;29;20395;-73
2021/03/12 02:12:20;;;;;;;25.30;7.07;;;8.10;99.90;;;8.22;75.36;100328.75;4938815;29;20067;-70
2021/03/12 02:14:58;;;;;;;27.95;7.25;;;8.20;99.90;;;8.35;75.20;100341.03;4938722;29;20044;-71
2021/03/12 02:17:33;;;;;;;30.80;6.13;;;8.20;99.90;;;8.23;74.90;100350.72;4921525;29;20110;-70
2021/03/12 02:20:24;;;;;;;30.90;7.10;;;8.10;99.90;;;8.24;74.67;100342.81;4921680;29;20066;-71
2021/03/12 02:23:09;;;;;;;17.67;6.90;;;8.10;99.90;;;8.12;74.37;100346.34;4921393;29;20051;-71
2021/03/12 02:25:42;;;;;;;27.33;6.85;;;8.00;99.90;;;8.15;74.98;100350.72;4921425;29;20051;-71
2021/03/12 02:28:13;;;;;;;24.73;7.55;;;8.00;99.90;;;8.23;73.53;100348.09;4921038;29;20059;-71
2021/03/12 02:30:41;;;;;;;24.60;7.43;;;8.10;99.90;;;8.27;73.62;100358.63;4921362;29;20043;-70
2021/03/12 02:33:10;;;;;;;20.75;6.43;;;8.10;99.90;;;8.27;73.67;100357.72;4921438;29;20085;-71
2021/03/12 02:35:46;;;;;;;25.65;6.95;;;8.10;99.90;;;8.28;73.45;100359.50;4921148;29;20051;-70
2021/03/12 02:38:29;;;;;;;21.45;6.80;;;8.20;99.90;;;8.35;73.29;100362.09;4938240;29;20402;-71
2021/03/12 02:41:03;;;;;;;20.65;6.38;;;8.20;99.90;;;8.23;73.51;100355.09;4921623;29;20551;-71
2021/03/12 02:43:42;;;;;;;20.80;7.43;;;8.10;99.90;;;8.15;73.40;100361.25;4921245;29;20047;-71
2021/03/12 02:46:12;;;;;;;23.02;6.95;;;8.10;99.90;;;8.31;73.31;100364.75;4921097;29;20082;-71
2021/03/12 02:48:42;;;;;;;21.77;7.20;;;8.10;99.90;;;8.32;73.28;100362.13;4920978;29;20094;-71
2021/03/12 02:51:10;;;;;;;25.77;7.03;;;8.10;99.90;;;8.31;73.10;100364.75;4921118;29;20524;-71
2021/03/12 02:53:38;;;;;;;19.20;6.60;;;8.20;99.90;;;8.30;72.95;100368.28;4921005;29;20513;-70
2021/03/12 02:56:25;;;;;;;31.90;7.78;;;8.10;99.90;;;8.05;73.74;100359.53;4920921;29;20099;-70
2021/03/12 02:58:55;;;;;;;27.35;7.43;;;7.90;99.90;;;8.08;73.87;100365.69;4920703;29;20517;-70
2021/03/12 03:01:55;;;;;;;28.70;6.45;;;7.90;99.90;;;7.99;74.13;100362.19;4920983;29;20142;-71
2021/03/12 03:04:42;;;;;;;22.52;6.60;;;7.90;99.90;;;7.94;74.40;100366.56;4937823;29;20047;-72
2021/03/12 03:07:25;;;;;;;23.48;6.97;;;7.80;99.90;;;7.96;74.99;100367.44;4920508;29;20066;-71
2021/03/12 03:09:54;;;;;;;26.37;7.00;;;7.80;99.90;;;7.74;74.66;100345.53;4920840;29;20063;-71
2021/03/12 03:12:25;;;;;;;29.10;6.63;;;7.70;99.90;;;7.82;75.48;100375.38;4920771;29;20055;-70
2021/03/12 03:15:00;;;;;;;24.90;6.05;;;7.70;99.90;;;7.79;75.43;100372.75;4920576;29;20102;-71
2021/03/12 03:17:33;;;;;;;24.27;7.65;;;7.70;99.90;;;7.78;75.68;100378.03;4920550;29;20155;-70
2021/03/12 03:20:05;;;;;;;28.92;6.32;;;7.60;99.90;;;7.62;75.76;100332.41;4919256;29;20062;-71
2021/03/12 03:22:33;;;;;;;32.87;6.60;;;7.70;99.90;;;7.83;75.76;100371.88;4920627;29;20078;-71
2021/03/12 03:25:02;;;;;;;30.00;7.78;;;7.70;99.90;;;7.79;76.28;100379.75;4920767;29;20056;-71
2021/03/12 03:27:29;;;;;;;28.50;7.78;;;7.60;99.90;;;7.49;76.36;100341.19;4937641;29;20051;-71
2021/03/12 03:29:58;;;;;;;29.35;6.90;;;7.60;99.90;;;7.67;76.89;100385.91;4937322;29;20052;-71
2021/03/12 03:32:26;;;;;;;32.08;7.28;;;7.60;99.90;;;7.64;77.17;100385.94;4920372;29;20056;-71
2021/03/12 03:34:54;;;;;;;28.67;7.57;;;7.50;99.90;;;7.70;77.19;100385.06;4920298;29;20435;-71
2021/03/12 03:37:21;;;;;;;25.40;7.67;;;7.60;99.90;;;7.70;77.37;100382.41;4920319;29;20059;-71
2021/03/12 03:39:49;;;;;;;26.35;6.85;;;7.60;99.90;;;7.67;77.24;100385.91;4937309;29;20048;-71
2021/03/12 03:42:18;;;;;;;29.90;7.00;;;7.50;99.90;;;7.01;77.89;100280.69;4937154;29;20055;-71
2021/03/12 03:44:46;;;;;;;28.88;7.00;;;7.50;99.90;;;7.59;77.91;100384.19;4919903;29;20044;-71
2021/03/12 03:47:16;;;;;;;27.67;7.40;;;7.50;99.90;;;7.59;77.94;100390.31;4920300;29;20494;-71
2021/03/12 03:49:45;;;;;;;36.97;7.90;;;7.50;99.90;;;7.58;78.04;100379.78;4920326;29;20410;-71
2021/03/12 03:52:13;;;;;;;30.40;7.50;;;7.40;99.90;;;7.57;77.97;100381.53;4920168;29;20059;-70
2021/03/12 03:54:53;;;;;;;21.03;6.63;;;7.40;99.90;;;7.51;78.11;100386.78;4920313;29;20494;-70
2021/03/12 03:57:22;;;;;;;30.88;6.38;;;7.40;99.90;;;7.50;78.03;100381.53;4919709;29;20060;-70
2021/03/12 03:59:50;;;;;;;27.20;6.77;;;7.40;99.90;;;7.46;77.91;100395.56;4919970;29;20043;-71
2021/03/12 04:02:21;;;;;;;28.63;7.20;;;7.30;99.90;;;7.46;78.08;100401.72;4919874;29;20414;-71
2021/03/12 04:04:52;;;;;;;36.67;6.68;;;7.40;99.90;;;7.21;78.16;100342.06;4919944;29;20410;-71
2021/03/12 04:07:24;;;;;;;33.13;7.47;;;7.40;99.90;;;7.50;77.87;100390.31;4919602;29;20107;-70
2021/03/12 04:09:55;;;;;;;22.43;6.83;;;7.40;99.90;;;7.51;78.18;100389.41;4919688;29;20056;-71
2021/03/12 04:12:26;;;;;;;29.70;7.43;;;7.40;99.90;;;7.53;78.34;100376.28;4919863;29;20497;-71
2021/03/12 04:14:58;;;;;;;31.27;7.75;;;7.30;99.90;;;7.49;77.88;100393.81;4919516;29;20056;-71
2021/03/12 04:17:27;;;;;;;28.30;7.65;;;7.40;99.90;;;7.36;78.48;100384.16;4919450;29;20052;-70
2021/03/12 04:19:56;;;;;;;26.73;6.73;;;7.30;99.90;;;7.32;78.31;100371.03;4936481;29;20107;-71
2021/03/12 04:22:24;;;;;;;27.83;8.70;;;7.30;99.90;;;7.35;78.27;100400.84;4936482;29;20044;-71
2021/03/12 04:24:52;;;;;;;26.57;7.07;;;7.30;99.90;;;7.42;78.57;100401.69;4919460;29;20052;-71
2021/03/12 04:27:24;;;;;;;30.13;6.90;;;7.30;99.90;;;7.41;78.18;100398.22;4919355;29;20130;-71
2021/03/12 04:29:52;;;;;;;40.10;7.33;;;7.30;99.90;;;7.42;78.52;100401.69;4919208;29;20458;-71
2021/03/12 04:32:21;;;;;;;29.63;8.47;;;7.30;99.90;;;7.39;78.11;100399.97;4935789;29;20055;-70
2021/03/12 04:34:50;;;;;;;19.87;5.87;;;7.30;99.90;;;7.39;78.18;100394.69;4918942;29;20056;-71
2021/03/12 04:37:21;;;;;;;27.90;7.30;;;7.30;99.90;;;7.52;78.38;100409.59;4919266;29;20048;-70
2021/03/12 04:39:49;;;;;;;28.40;6.43;;;7.30;99.90;;;7.42;78.22;100399.94;4936275;29;20406;-71
2021/03/12 04:42:20;;;;;;;25.63;6.67;;;7.30;99.90;;;7.52;77.85;100406.97;4919187;29;20052;-70
2021/03/12 04:45:06;;;;;;;24.87;6.73;;;7.40;99.90;;;7.51;77.42;100413.09;4918904;29;20050;-70
2021/03/12 04:47:34;;;;;;;28.93;6.80;;;7.40;99.90;;;7.45;78.04;100415.75;4919322;29;20056;-71
2021/03/12 04:50:07;;;;;;;26.80;6.40;;;7.40;99.90;;;7.43;78.12;100403.47;4918925;29;20067;-70
2021/03/12 04:52:35;;;;;;;22.27;7.05;;;7.30;99.90;;;7.45;78.30;100397.34;4919014;29;20052;-71
2021/03/12 04:55:04;;;;;;;22.93;6.80;;;7.40;99.90;;;7.51;77.92;100399.09;4918878;29;20043;-71
2021/03/12 04:57:32;;;;;;;26.40;6.67;;;7.40;99.90;;;7.29;78.09;100369.25;4918936;29;20134;-70
2021/03/12 05:00:00;;;;;;;31.70;6.80;;;7.40;99.90;;;7.45;78.09;100410.50;4918624;29;20509;-71
2021/03/12 05:02:35;;;;;;;22.87;6.70;;;7.30;99.90;;;7.45;78.90;100421.03;4918801;29;20573;-71
2021/03/12 05:05:08;;;;;;;24.92;7.53;;;7.30;99.90;;;7.34;78.37;100379.78;4918740;29;20058;-71
2021/03/12 05:07:36;;;;;;;28.73;7.20;;;7.30;99.90;;;7.54;78.35;100415.75;4918698;29;20063;-70
2021/03/12 05:10:21;;;;;;;29.67;6.90;;;7.30;99.90;;;7.49;78.54;100420.13;4935608;29;20115;-71
2021/03/12 05:12:49;;;;;;;30.50;7.27;;;7.30;99.90;;;7.37;78.77;100409.59;4918824;29;20067;-70
2021/03/12 05:15:33;;;;;;;25.87;7.37;;;7.30;99.90;;;7.44;78.96;100414.00;4918536;29;20142;-70
2021/03/12 05:18:00;;;;;;;26.27;6.73;;;7.30;99.90;;;7.32;79.33;100418.38;4918484;29;20052;-70
2021/03/12 05:20:29;;;;;;;26.10;7.83;;;7.20;99.90;;;7.36;79.58;100422.72;4935469;29;20055;-71
2021/03/12 05:22:57;;;;;;;32.37;7.23;;;7.20;99.90;;;7.37;79.42;100414.88;4918063;29;20087;-71
2021/03/12 05:25:24;;;;;;;29.40;7.67;;;7.20;99.90;;;7.42;79.14;100417.47;4918642;29;20047;-71
2021/03/12 05:27:52;;;;;;;26.77;7.37;;;7.20;99.90;;;7.38;78.86;100416.59;4935424;29;20054;-71
2021/03/12 05:30:22;;;;;;;22.00;6.82;;;7.20;99.90;;;7.35;79.17;100406.09;4918554;29;20051;-71
2021/03/12 05:32:53;;;;;;;31.10;7.67;;;7.20;99.90;;;7.31;79.30;100401.72;4918532;29;20060;-71
2021/03/12 05:35:21;;;;;;;31.07;7.20;;;7.20;99.90;;;7.36;79.33;100421.00;4918141;29;20060;-70
2021/03/12 05:37:49;;;;;;;28.43;7.00;;;7.20;99.90;;;7.37;79.17;100428.03;4935398;29;20043;-71
2021/03/12 05:40:19;;;;;;;28.13;6.45;;;7.20;99.90;;;7.31;79.17;100422.75;4918625;29;20044;-70
2021/03/12 05:42:51;;;;;;;28.07;7.10;;;7.20;99.90;;;7.39;79.17;100410.50;4918261;29;20142;-71
2021/03/12 05:45:20;;;;;;;22.03;6.67;;;7.20;99.90;;;7.29;78.98;100412.22;4922163;29;20450;-71
2021/03/12 05:47:56;;;;;;;28.13;6.40;;;7.20;99.90;;;7.28;79.00;100414.84;4922507;29;20122;-71
2021/03/12 05:50:23;;;;;;;21.57;6.93;;;7.10;99.90;;;7.34;78.86;100422.75;4922561;29;20142;-71
2021/03/12 05:52:52;;;;;;;31.60;7.10;;;7.20;99.90;;;7.32;78.72;100425.38;4922125;29;20052;-70
2021/03/12 05:55:24;;;;;;;27.43;7.03;;;7.20;99.90;;;7.19;78.54;100385.91;4922190;29;20052;-71
2021/03/12 05:57:52;;;;;;;25.57;7.93;;;7.20;99.90;;;7.32;78.68;100413.97;4921709;29;20112;-71
2021/03/12 06:00:21;;;;;;;28.30;6.75;;;7.20;99.90;;;7.35;78.50;100419.25;4938880;29;20501;-71
2021/03/12 06:02:54;;;;;;;26.57;6.87;;;7.20;99.90;;;7.21;78.80;100405.19;4921985;29;20059;-71
2021/03/12 06:05:48;;;;;;;29.63;6.90;;;7.10;99.90;;;7.27;79.02;100405.22;4939049;29;20068;-71
2021/03/12 06:08:18;;;;;;;37.93;6.97;;;7.10;99.90;;;7.31;78.55;100404.34;4921768;29;20079;-71
2021/03/12 06:10:46;;;;;;;31.87;6.60;;;7.10;99.90;;;7.32;78.63;100406.97;4921621;29;20553;-71
2021/03/12 06:13:18;;;;;;;32.07;7.13;;;7.20;99.90;;;7.38;78.35;100411.34;4921897;29;20094;-71
2021/03/12 06:15:49;;;;;;;25.38;6.68;;;7.20;99.90;;;7.47;78.38;100415.75;4921621;29;20167;-71
2021/03/12 06:18:25;;;;;;;27.67;7.23;;;7.20;99.90;;;6.83;78.05;100309.63;4921607;29;20148;-71
2021/03/12 06:21:28;;;;;;;22.77;7.73;;;7.30;99.90;;;7.47;78.38;100403.44;4937251;29;20056;-70
2021/03/12 06:24:02;;;;;;;31.33;8.43;;;7.30;99.90;;;7.41;78.72;100407.84;4921642;29;20070;-71
2021/03/12 06:26:46;;;;;;;26.77;7.13;;;7.30;99.90;;;7.44;78.91;100407.84;4921646;29;20043;-71
2021/03/12 06:29:34;;;;;;;29.23;7.00;;;7.30;99.90;;;7.46;78.75;100411.34;4921361;29;20051;-71
2021/03/12 06:32:13;;;;;;;33.93;7.57;;;7.30;99.90;;;7.64;78.82;100411.38;4921453;29;20102;-71
2021/03/12 06:35:00;;;;;;;28.67;8.27;;;7.40;99.90;;;7.70;78.48;100416.63;4921326;29;20120;-71
2021/03/12 06:38:08;;;;;;;27.83;7.83;;;7.50;99.90;;;7.64;78.67;100409.63;4916239;29;20060;-70
2021/03/12 06:40:48;;;;;;;26.53;7.60;;;7.50;99.90;;;7.49;78.91;100380.66;4921203;29;20062;-71
2021/03/12 06:43:24;;;;;;;28.20;7.17;;;7.50;99.90;;;7.73;78.21;100417.50;4921487;29;20048;-70
2021/03/12 06:45:59;;;;;;;29.92;8.40;;;7.60;99.90;;;7.65;78.17;100392.94;4921258;29;20056;-71
2021/03/12 06:48:35;;;;;;;26.08;7.13;;;7.70;99.90;;;7.86;78.29;100411.34;4938350;29;20054;-71
2021/03/12 06:51:25;;;;;;;29.00;7.88;;;7.70;99.90;;;7.78;78.42;100418.38;4921352;29;20052;-71
2021/03/12 06:54:06;;;;;;;22.88;6.85;;;7.70;99.90;;;7.83;78.39;100392.03;4938191;29;20469;-70
2021/03/12 06:56:44;;;;;;;33.30;7.77;;;7.70;99.90;;;7.89;77.88;100408.72;4920897;29;20052;-71
2021/03/12 06:59:30;;;;;;;34.30;7.83;;;7.70;99.90;;;7.85;77.96;100392.91;4921161;29;20466;-71
2021/03/12 07:02:30;;;;;;;34.50;8.70;;;7.70;99.90;;;7.83;77.73;100386.78;4920910;29;20403;-71
2021/03/12 07:04:59;;;;;;;34.57;8.03;;;7.70;99.90;;;7.86;78.24;100390.28;4920978;29;20044;-71
2021/03/12 07:07:51;;;;;;;37.92;7.47;;;7.70;99.90;;;7.85;78.36;100392.91;4920905;29;20315;-71
2021/03/12 07:10:37;;;;;;;38.75;8.52;;;7.60;99.90;;;7.85;78.25;100380.66;4937962;29;20138;-71
2021/03/12 07:13:24;;;;;;;39.25;7.63;;;7.70;99.90;;;7.90;78.24;100377.97;4920583;29;20051;-71
2021/03/12 07:15:58;;;;;;;32.47;8.80;;;7.70;99.90;;;7.93;78.80;100388.53;4920813;29;20422;-70
2021/03/12 07:18:40;;;;;;;37.60;8.43;;;7.80;99.90;;;7.98;78.36;100377.09;4920685;29;20067;-71
2021/03/12 07:21:10;;;;;;;35.40;8.98;;;7.80;99.90;;;8.07;78.44;100382.34;4920381;29;20399;-71
2021/03/12 07:23:43;;;;;;;32.03;8.38;;;7.90;99.90;;;8.15;78.43;100387.59;4920299;29;20512;-71
2021/03/12 07:26:17;;;;;;;44.53;8.40;;;7.90;99.90;;;8.20;78.07;100377.94;4920643;29;20458;-71
2021/03/12 07:28:57;;;;;;;32.40;9.00;;;8.00;99.90;;;8.08;78.10;100370.94;4920554;29;20056;-71
2021/03/12 07:31:38;;;;;;;33.30;8.60;;;8.00;99.90;;;8.31;78.25;100377.91;4920337;29;20048;-70
2021/03/12 07:34:18;;;;;;;36.83;9.48;;;8.00;99.90;;;7.77;77.89;100253.41;4920142;29;20078;-71
2021/03/12 07:36:51;;;;;;;31.75;8.13;;;8.20;99.90;;;8.57;77.59;100336.53;4920494;29;20565;-70
2021/03/12 07:39:24;;;;;;;38.03;9.48;;;8.50;99.90;;;8.87;76.24;100366.25;4920296;29;20497;-71
2021/03/12 07:41:55;;;;;;;35.95;8.93;;;8.70;99.90;;;9.06;75.80;100354.69;4920114;29;20561;-71
2021/03/12 07:45:19;;;;;;;37.63;9.65;;;8.90;99.90;;;9.46;74.87;100342.09;4925305;29;20059;-70
2021/03/12 07:48:05;;;;;;;28.73;7.47;;;9.30;99.90;;;9.71;74.28;100385.88;4937425;29;20067;-70
2021/03/12 07:50:44;;;;;;;27.13;8.65;;;9.50;99.90;;;9.90;73.05;100362.78;4920034;29;20130;-70
2021/03/12 07:53:18;;;;;;;29.42;8.40;;;9.70;99.90;;;9.96;72.19;100357.47;4920114;29;20055;-71
2021/03/12 07:55:53;;;;;;;32.10;9.10;;;9.80;99.90;;;10.01;72.13;100367.09;4920059;29;20399;-71
2021/03/12 07:58:57;;;;;;;34.13;8.45;;;9.90;99.90;;;9.76;71.64;100280.19;4937158;29;20414;-71
2021/03/12 08:01:52;;;;;;;29.30;7.88;;;10.00;99.90;;;10.33;71.44;100369.41;4935208;29;20051;-72
2021/03/12 08:04:39;;;;;;;31.67;7.40;;;10.10;99.90;;;10.25;71.43;100362.47;4936971;29;20054;-71
2021/03/12 08:07:33;;;;;;;31.85;7.75;;;10.10;99.90;;;10.30;71.57;100355.38;4919018;29;20075;-71
2021/03/12 08:10:18;;;;;;;38.65;9.93;;;10.20;99.90;;;10.26;71.09;100369.50;4919745;29;20103;-67
2021/03/12 08:13:28;;;;;;;39.08;7.95;;;10.10;99.90;;;10.03;71.42;100381.16;4919637;29;20195;-70
2021/03/12 08:16:24;;;;;;;35.03;8.07;;;10.00;99.90;;;9.61;71.96;100318.19;4929768;29;20494;-69
2021/03/12 08:19:29;;;;;;;39.13;8.50;;;9.60;99.90;;;9.72;72.75;100368.25;4919571;29;20052;-70
2021/03/12 08:22:46;;;;;;;33.15;8.85;;;9.60;99.90;;;9.36;73.24;100364.16;4935669;29;20055;-74
2021/03/12 08:25:47;;;;;;;29.38;7.35;;;9.30;99.90;;;9.24;74.25;100353.69;4919186;29;20056;-75
2021/03/12 08:28:32;;;;;;;33.20;9.10;;;9.10;99.90;;;9.24;74.27;100358.09;4936416;29;20067;-75
2021/03/12 08:31:41;;;;;;;35.80;7.88;;;9.10;99.90;;;9.00;74.62;100360.00;4919342;29;20063;-71
2021/03/12 08:34:41;;;;;;;37.20;8.90;;;8.90;99.90;;;9.01;75.31;100361.78;4934861;29;20056;-71
2021/03/12 08:37:41;;;;;;;35.85;9.13;;;8.80;99.90;;;9.09;75.03;100359.09;4936417;29;20061;-71
2021/03/12 08:40:38;;;;;;;34.53;9.75;;;8.90;99.90;;;9.18;75.57;100364.28;4918961;29;20527;-70
2021/03/12 08:43:24;;;;;;;33.55;9.13;;;9.00;99.90;;;9.17;75.09;100345.84;4919176;29;20111;-71
2021/03/12 08:46:23;;;;;;;26.55;8.90;;;9.00;99.90;;;9.36;74.90;100335.13;4919207;29;20052;-71
2021/03/12 08:48:56;;;;;;;34.85;9.27;;;9.20;99.90;;;9.46;75.13;100344.72;4919346;29;20048;-69
2021/03/12 08:51:28;;;;;;;39.35;8.98;;;9.30;99.90;;;9.40;75.36;100341.25;4918816;29;20465;-69
2021/03/12 08:54:07;;;;;;;34.92;9.35;;;9.30;99.90;;;9.38;75.87;100340.41;4918941;29;20149;-69
2021/03/12 08:56:42;;;;;;;35.70;8.52;;;9.30;99.90;;;9.37;75.47;100328.94;4918905;29;20055;-68
2021/03/12 08:59:10;;;;;;;38.60;9.30;;;9.20;99.90;;;9.39;75.73;100321.91;4918754;29;20059;-69
2021/03/12 09:01:58;;;;;;;36.25;8.52;;;9.20;99.90;;;9.25;75.70;100323.81;4932059;29;20584;-68
2021/03/12 09:04:39;;;;;;;40.45;11.27;;;9.20;99.90;;;9.12;75.96;100311.56;4919063;29;20492;-69
2021/03/12 09:07:55;;;;;;;41.42;11.25;;;9.10;99.90;;;9.31;75.99;100315.81;4918861;29;20053;-73
2021/03/12 09:10:35;;;;;;;36.88;10.00;;;9.20;99.90;;;9.21;76.62;100332.63;4918674;29;20067;-74
2021/03/12 09:13:17;;;;;;;40.22;8.93;;;9.10;99.90;;;9.15;77.00;100305.41;4918597;29;20839;-71
2021/03/12 09:15:46;;;;;;;34.85;10.05;;;9.00;99.90;;;8.96;77.83;100320.50;4918478;29;20107;-74
2021/03/12 09:18:35;;;;;;;41.10;8.75;;;8.90;99.90;;;8.66;79.96;100328.56;4918342;29;20055;-74
2021/03/12 09:21:07;;;;;;;36.00;9.05;;;8.60;99.90;;;8.69;80.76;100336.50;4935717;29;20410;-70
2021/03/12 09:23:41;;;;;;;36.72;8.52;;;8.50;99.90;;;8.65;82.00;100335.59;4935577;29;20122;-71
2021/03/12 09:26:12;;;;;;;35.67;8.63;;;8.50;99.90;;;8.45;82.40;100331.31;4918567;29;20150;-69
2021/03/12 09:28:49;;;;;;;23.58;6.60;;;8.40;99.90;;;8.24;82.00;100327.00;4918384;29;20051;-69
2021/03/12 09:31:29;;;;;;;26.55;8.68;;;8.20;99.90;;;8.10;82.88;100313.88;4918655;29;20549;-69
2021/03/12 09:34:05;;;;;;;30.80;7.50;;;8.10;99.90;;;8.15;83.72;100305.94;4918610;29;20405;-70
2021/03/12 09:36:58;;;;;;;27.88;7.53;;;8.10;99.90;;;8.05;84.21;100293.72;4932406;29;20056;-71
2021/03/12 09:39:48;;;;;;;27.42;7.28;;;8.00;99.90;;;8.06;85.07;100298.97;4935158;29;20095;-70
2021/03/12 09:42:39;;;;;;;36.40;8.57;;;8.00;99.90;;;8.23;85.70;100323.47;4932482;29;20044;-70
2021/03/12 09:45:21;;;;;;;31.73;7.97;;;8.00;99.90;;;8.26;85.92;100314.72;4918308;29;20513;-70
2021/03/12 09:47:51;;;;;;;31.42;7.90;;;8.10;99.90;;;8.19;85.68;100319.09;4918440;29;20058;-69
2021/03/12 09:50:25;;;;;;;30.95;8.20;;;8.10;99.90;;;8.29;85.93;100308.53;4935525;29;20052;-69
2021/03/12 09:53:06;;;;;;;36.75;8.35;;;8.10;99.90;;;8.34;86.19;100328.75;4918279;29;20070;-70
2021/03/12 09:55:46;;;;;;;30.92;8.23;;;8.20;99.90;;;8.52;85.97;100306.69;4918074;29;20047;-71
2021/03/12 09:58:19;;;;;;;27.52;7.13;;;8.30;99.90;;;8.58;85.32;100309.28;4918322;29;20150;-70
2021/03/12 10:01:16;;;;;;;36.33;8.35;;;8.40;99.90;;;8.72;85.67;100299.53;4935538;29;20421;-70
2021/03/12 10:03:48;;;;;;;30.45;7.63;;;8.50;99.90;;;8.83;85.08;100282.75;4918197;29;20048;-68
2021/03/12 10:06:35;;;;;;;27.35;7.20;;;8.70;99.90;;;8.92;84.51;100290.59;4918010;29;20107;-73
2021/03/12 10:09:23;;;;;;;28.08;7.43;;;8.70;99.90;;;9.09;84.84;100270.28;4918445;29;20055;-72
2021/03/12 10:12:18;;;;;;;27.50;6.85;;;8.90;99.90;;;9.42;83.39;100284.94;4918009;29;20056;-79
2021/03/12 10:14:55;;;;;;;25.60;7.72;;;9.20;99.90;;;9.55;82.70;100283.94;4934900;29;20075;-80
2021/03/12 10:17:40;;;;;;;26.65;7.13;;;9.40;99.90;;;9.24;81.16;100274.53;4918261;29;20062;-80
2021/03/12 10:20:27;;;;;;;19.25;7.00;;;9.20;99.90;;;9.44;82.74;100251.50;4917963;29;20484;-74
2021/03/12 10:22:58;;;;;;;27.63;7.20;;;9.30;99.90;;;8.98;81.94;100210.59;4934913;29;20043;-76
2021/03/12 10:25:31;;;;;;;25.67;7.05;;;9.30;99.90;;;9.53;81.17;100251.38;4935224;29;20154;-76
2021/03/12 10:28:03;;;;;;;21.00;6.50;;;9.40;99.90;;;9.63;81.30;100278.56;4935355;29;20071;-79
2021/03/12 10:30:39;;;;;;;23.27;7.53;;;9.50;99.90;;;9.69;81.48;100260.91;4937405;29;20055;-79
2021/03/12 10:33:10;;;;;;;22.20;6.78;;;9.50;99.90;;;9.70;80.61;100260.00;4938565;29;20122;-80
2021/03/12 10:35:43;;;;;;;20.27;7.13;;;9.60;99.90;;;9.74;79.79;100264.34;4938555;29;20434;-76
2021/03/12 10:38:18;;;;;;;20.23;6.30;;;9.60;99.90;;;9.82;79.91;100256.34;4921798;29;20048;-76
2021/03/12 10:40:50;;;;;;;22.42;6.68;;;9.60;99.90;;;9.77;79.34;100237.94;4938542;29;20126;-77
2021/03/12 10:43:20;;;;;;;19.63;6.68;;;9.60;99.90;;;9.84;79.11;100242.25;4938396;29;20583;-77
2021/03/12 10:45:50;;;;;;;19.85;6.70;;;9.70;99.90;;;9.72;78.80;100241.50;4921261;29;20147;-75
2021/03/12 10:48:20;;;;;;;21.10;6.85;;;9.60;99.90;;;9.56;79.37;100221.44;4938093;29;20047;-77
2021/03/12 10:51:03;;;;;;;21.92;6.28;;;9.50;99.90;;;9.52;79.42;100231.16;4938388;29;20046;-76
2021/03/12 10:53:32;;;;;;;22.65;6.90;;;9.50;99.90;;;9.54;79.76;100237.28;4938164;29;20498;-79
2021/03/12 10:56:03;;;;;;;21.00;6.85;;;9.40;99.90;;;9.57;79.98;100210.88;4938075;29;20040;-78
2021/03/12 10:58:37;;;;;;;25.00;7.40;;;9.40;99.90;;;9.54;79.79;100226.72;4937921;29;20074;-71